Archival Weather

Half Moon Bay

Half Moon Bay, California (KHAF)

Report from: Wednesday, December 6, 2023 3:55 PM PST
Current time: Saturday, February 24, 2024 8:25 AM PST

Current weather – Weather history – Daily summaries
Weather forecast

Present weatherMist
Temperature14.0°C (57.2°F)
Dew point14.0°C (57.2°F)
Winds 13 kts (6.7 m/s, 15 mph) South (180°)
Visibility4 mi. (6.4 km)
Clouds Ceiling: Broken clouds 400 ft. (122 m)
Broken clouds 800 ft. (244 m)
Overcast 4,100 ft. (1,250 m)
Altimeter30.02 in.Hg (1017 mB)
Precipitiation0.01 in. (0 mm)
Relative humidity100 %
Density altitude-10 ft. (-3 m)
Remarks Fully automated report
Automated weather observing station with precipitation discriminator
Flight conditions Low Instrument Meteorological Conditions
Raw dataKHAF 062355Z AUTO 18013KT 4SM BR BKN004 BKN008 OVC041 14/14 A3002 RMK AO2 P0001
An error has occurred. This application may no longer respond until reloaded. Reload 🗙